createdAt,value
2018-11-25T00:00:02.130Z,75.80
2018-11-25T00:02:29.661Z,76.10
2018-11-25T00:04:57.127Z,76.00
2018-11-25T00:07:24.743Z,75.60
2018-11-25T00:09:52.301Z,75.70
2018-11-25T00:12:19.827Z,75.80
2018-11-25T00:14:47.382Z,75.40
2018-11-25T00:17:14.988Z,74.70
2018-11-25T00:19:42.542Z,73.90
2018-11-25T00:22:10.144Z,74.30
2018-11-25T00:24:37.687Z,74.60
2018-11-25T00:27:05.282Z,74.40
2018-11-25T00:29:32.865Z,74.80
2018-11-25T00:32:00.473Z,75.30
2018-11-25T00:34:27.938Z,75.40
2018-11-25T00:36:55.543Z,74.70
2018-11-25T00:39:23.181Z,75.10
2018-11-25T00:41:50.670Z,75.50
2018-11-25T00:44:18.318Z,75.90
2018-11-25T00:46:45.790Z,76.30
2018-11-25T00:49:13.456Z,76.30
2018-11-25T00:51:41.031Z,75.80
2018-11-25T00:54:08.610Z,76.00
2018-11-25T00:56:36.285Z,75.00
2018-11-25T00:59:03.957Z,74.60
2018-11-25T01:01:31.498Z,73.90
2018-11-25T01:03:59.005Z,73.60
2018-11-25T01:06:26.540Z,72.50
2018-11-25T01:08:54.182Z,71.90
2018-11-25T01:11:21.790Z,73.20
2018-11-25T01:13:49.288Z,73.30
2018-11-25T01:16:16.916Z,73.20
2018-11-25T01:18:44.476Z,73.60
2018-11-25T01:21:12.109Z,73.80
2018-11-25T01:23:39.667Z,74.10
2018-11-25T01:26:07.353Z,74.30
2018-11-25T01:28:34.974Z,74.50
2018-11-25T01:31:02.570Z,75.30
2018-11-25T01:33:30.139Z,76.00
2018-11-25T01:35:57.649Z,76.00
2018-11-25T01:38:25.205Z,76.20
2018-11-25T01:40:52.783Z,75.40
2018-11-25T01:43:20.362Z,75.40
2018-11-25T01:45:47.965Z,75.50
2018-11-25T01:48:15.506Z,75.40
2018-11-25T01:50:42.998Z,75.30
2018-11-25T01:53:10.606Z,74.90
2018-11-25T01:55:38.119Z,74.30
2018-11-25T01:58:05.925Z,74.20
2018-11-25T02:00:33.675Z,73.50
2018-11-25T02:03:01.251Z,73.10
2018-11-25T02:05:28.860Z,72.80
2018-11-25T02:07:56.391Z,72.70
2018-11-25T02:10:24.006Z,72.90
2018-11-25T02:12:51.530Z,72.70
2018-11-25T02:15:19.104Z,72.40
2018-11-25T02:17:46.710Z,73.00
2018-11-25T02:20:17.250Z,72.70
2018-11-25T02:22:44.941Z,72.80
2018-11-25T02:25:12.547Z,72.60
2018-11-25T02:27:40.053Z,72.10
2018-11-25T02:30:10.612Z,72.00
2018-11-25T02:32:38.245Z,71.80
2018-11-25T02:35:09.140Z,71.80
2018-11-25T02:37:36.739Z,72.50
2018-11-25T02:40:06.490Z,72.70
2018-11-25T02:42:34.003Z,72.70
2018-11-25T02:45:01.555Z,72.30
2018-11-25T02:47:29.108Z,72.20
2018-11-25T02:49:56.602Z,71.00
2018-11-25T02:52:24.090Z,70.80
2018-11-25T02:54:51.616Z,71.90
2018-11-25T02:57:23.075Z,73.30
2018-11-25T02:59:51.710Z,73.10
2018-11-25T03:02:19.575Z,73.80
2018-11-25T03:04:47.189Z,73.70
2018-11-25T03:07:14.749Z,73.50
2018-11-25T03:09:42.382Z,73.30
2018-11-25T03:12:09.921Z,74.70
2018-11-25T03:14:37.520Z,75.70
2018-11-25T03:17:05.233Z,76.70
2018-11-25T03:19:32.804Z,76.30
2018-11-25T03:22:00.397Z,77.20
2018-11-25T03:24:27.926Z,76.80
2018-11-25T03:26:55.566Z,76.60
2018-11-25T03:29:23.210Z,76.80
2018-11-25T03:31:50.776Z,76.40
2018-11-25T03:34:18.335Z,76.00
2018-11-25T03:36:45.869Z,75.50
2018-11-25T03:39:13.462Z,75.50
2018-11-25T03:41:41.004Z,75.10
2018-11-25T03:44:08.533Z,75.00
2018-11-25T03:46:36.070Z,74.50
2018-11-25T03:49:03.667Z,75.10
2018-11-25T03:51:31.230Z,75.50
2018-11-25T03:53:58.753Z,75.30
2018-11-25T03:56:26.318Z,75.60
2018-11-25T03:58:53.977Z,75.10
2018-11-25T04:01:21.599Z,75.60
2018-11-25T04:03:49.202Z,75.60
2018-11-25T04:06:16.832Z,76.60
2018-11-25T04:08:44.421Z,76.10
2018-11-25T04:11:11.894Z,76.90
2018-11-25T04:13:39.453Z,77.10
2018-11-25T04:16:06.982Z,77.10
2018-11-25T04:18:34.549Z,77.40
2018-11-25T04:21:02.137Z,77.50
2018-11-25T04:23:29.753Z,76.80
2018-11-25T04:25:57.301Z,76.70
2018-11-25T04:28:24.812Z,76.60
2018-11-25T04:30:52.332Z,75.90
2018-11-25T04:33:19.867Z,76.30
2018-11-25T04:35:47.432Z,76.20
2018-11-25T04:38:15.020Z,76.40
2018-11-25T04:40:42.553Z,75.70
2018-11-25T04:43:10.115Z,76.00
2018-11-25T04:45:37.678Z,75.40
2018-11-25T04:48:05.291Z,75.10
2018-11-25T04:50:32.838Z,75.30
2018-11-25T04:53:00.377Z,75.60
2018-11-25T04:55:28.045Z,75.50
2018-11-25T04:57:55.526Z,75.70
2018-11-25T05:00:23.044Z,75.10
2018-11-25T05:02:51.226Z,75.70
2018-11-25T05:05:18.873Z,75.60
2018-11-25T05:07:46.544Z,75.30
2018-11-25T05:10:15.067Z,75.50
2018-11-25T05:12:42.650Z,75.40
2018-11-25T05:15:18.293Z,75.20
2018-11-25T05:17:45.857Z,74.40
2018-11-25T05:20:14.273Z,74.70
2018-11-25T05:22:41.898Z,75.00
2018-11-25T05:25:12.504Z,76.00
2018-11-25T05:27:40.077Z,75.90
2018-11-25T05:30:10.506Z,75.90
2018-11-25T05:32:38.163Z,75.80
2018-11-25T05:35:07.148Z,75.60
2018-11-25T05:37:34.674Z,76.20
2018-11-25T05:40:02.230Z,76.50
2018-11-25T05:42:29.744Z,76.10
2018-11-25T05:44:57.289Z,76.60
2018-11-25T05:47:24.872Z,76.20
2018-11-25T05:49:52.340Z,77.30
2018-11-25T05:52:19.945Z,76.30
2018-11-25T05:54:47.568Z,77.10
2018-11-25T05:57:15.093Z,76.90
2018-11-25T05:59:42.676Z,76.10
2018-11-25T06:02:10.157Z,76.80
2018-11-25T06:04:37.710Z,76.70
2018-11-25T06:07:05.653Z,76.70
2018-11-25T06:09:33.168Z,76.40
2018-11-25T06:12:00.641Z,77.30
2018-11-25T06:14:28.190Z,77.10
2018-11-25T06:16:55.697Z,76.90
2018-11-25T06:19:23.189Z,76.80
2018-11-25T06:21:50.727Z,77.10
2018-11-25T06:24:18.317Z,76.90
2018-11-25T06:26:45.847Z,77.20
2018-11-25T06:29:13.464Z,77.00
2018-11-25T06:31:41.003Z,77.30
2018-11-25T06:34:08.519Z,77.20
2018-11-25T06:36:36.098Z,76.90
2018-11-25T06:39:06.695Z,76.80
2018-11-25T06:41:34.313Z,76.80
2018-11-25T06:44:01.933Z,76.70
2018-11-25T06:46:29.474Z,76.70
2018-11-25T06:48:57.013Z,77.20
2018-11-25T06:51:24.628Z,76.60
2018-11-25T06:53:52.319Z,76.70
2018-11-25T06:56:27.187Z,76.60
2018-11-25T06:58:47.437Z,75.70
2018-11-25T07:01:14.959Z,75.60
2018-11-25T07:03:42.457Z,75.50
2018-11-25T07:06:10.050Z,75.00
2018-11-25T07:08:37.573Z,75.10
2018-11-25T07:11:05.188Z,75.60
2018-11-25T07:13:32.737Z,75.90
2018-11-25T07:16:00.373Z,75.90
2018-11-25T07:18:27.916Z,75.60
2018-11-25T07:20:55.392Z,75.10
2018-11-25T07:23:22.966Z,75.40
2018-11-25T07:25:50.483Z,75.80
2018-11-25T07:28:18.738Z,76.00
2018-11-25T07:30:45.686Z,75.90
2018-11-25T07:33:13.268Z,75.60
2018-11-25T07:35:40.793Z,75.40
2018-11-25T07:38:08.302Z,75.70
2018-11-25T07:40:35.840Z,76.20
2018-11-25T07:43:03.351Z,76.20
2018-11-25T07:45:31.026Z,75.50
2018-11-25T07:47:58.486Z,76.40
2018-11-25T07:50:26.031Z,77.10
2018-11-25T07:52:53.585Z,77.00
2018-11-25T07:55:22.249Z,77.30
2018-11-25T07:57:50.841Z,77.40
2018-11-25T08:00:20.059Z,77.40
2018-11-25T08:02:47.622Z,77.50
2018-11-25T08:05:16.622Z,77.70
2018-11-25T08:07:44.143Z,78.20
2018-11-25T08:10:12.620Z,78.90
2018-11-25T08:12:40.205Z,79.30
2018-11-25T08:15:10.012Z,82.30
2018-11-25T08:17:38.063Z,85.40
2018-11-25T08:20:08.141Z,84.60
2018-11-25T08:22:35.700Z,82.70
2018-11-25T08:25:03.699Z,82.70
2018-11-25T08:27:31.232Z,84.40
2018-11-25T08:29:58.771Z,82.80
2018-11-25T08:32:26.365Z,82.90
2018-11-25T08:34:53.858Z,83.30
2018-11-25T08:37:21.407Z,83.90
2018-11-25T08:39:49.005Z,83.70
2018-11-25T08:42:16.589Z,84.20
2018-11-25T08:44:44.195Z,84.10
2018-11-25T08:47:11.701Z,84.00
2018-11-25T08:49:39.290Z,83.90
2018-11-25T08:52:06.921Z,83.60
2018-11-25T08:54:34.512Z,84.00
2018-11-25T08:57:02.072Z,84.60
2018-11-25T08:59:29.699Z,85.00
2018-11-25T09:01:57.248Z,85.30
2018-11-25T09:04:24.802Z,85.70
2018-11-25T09:06:52.414Z,86.40
2018-11-25T09:09:19.958Z,85.70
2018-11-25T09:11:47.509Z,85.80
2018-11-25T09:14:15.055Z,85.50
2018-11-25T09:16:42.554Z,85.60
2018-11-25T09:19:10.150Z,86.40
2018-11-25T09:21:37.756Z,85.40
2018-11-25T09:24:05.596Z,85.60
2018-11-25T09:26:33.203Z,85.20
2018-11-25T09:29:00.732Z,85.30
2018-11-25T09:31:28.333Z,85.60
2018-11-25T09:33:56.787Z,85.80
2018-11-25T09:36:23.485Z,86.30
2018-11-25T09:38:51.111Z,86.70
2018-11-25T09:41:18.670Z,86.40
2018-11-25T09:43:46.229Z,85.50
2018-11-25T09:46:13.793Z,85.70
2018-11-25T09:48:41.310Z,86.00
2018-11-25T09:51:08.903Z,85.00
2018-11-25T09:53:36.507Z,85.50
2018-11-25T09:56:04.700Z,85.10
2018-11-25T09:58:32.347Z,84.70
2018-11-25T10:00:59.978Z,84.30
2018-11-25T10:03:27.628Z,84.10
2018-11-25T10:05:55.209Z,84.00
2018-11-25T10:08:22.736Z,84.70
2018-11-25T10:10:52.689Z,85.10
2018-11-25T10:13:18.378Z,84.40
2018-11-25T10:15:46.008Z,84.10
2018-11-25T10:18:13.709Z,84.20
2018-11-25T10:20:41.399Z,84.00
2018-11-25T10:23:08.985Z,83.70
2018-11-25T10:25:36.584Z,84.00
2018-11-25T10:28:04.120Z,83.30
2018-11-25T10:30:31.730Z,83.50
2018-11-25T10:33:01.711Z,83.50
2018-11-25T10:35:29.266Z,83.60
2018-11-25T10:37:56.867Z,83.30
2018-11-25T10:40:24.811Z,83.40
2018-11-25T10:42:52.791Z,83.70
2018-11-25T10:45:23.304Z,84.00
2018-11-25T10:47:50.920Z,83.70
2018-11-25T10:50:19.074Z,83.90
2018-11-25T10:52:46.755Z,83.50
2018-11-25T10:55:15.348Z,82.40
2018-11-25T10:57:43.829Z,82.20
2018-11-25T11:00:23.066Z,82.10
2018-11-25T11:02:56.367Z,81.90
2018-11-25T11:05:29.848Z,82.50
2018-11-25T11:07:57.478Z,82.20
2018-11-25T11:10:25.099Z,81.70
2018-11-25T11:12:52.654Z,81.10
2018-11-25T11:15:20.179Z,80.20
2018-11-25T11:17:47.809Z,80.10
2018-11-25T11:20:15.411Z,79.80
2018-11-25T11:22:42.990Z,80.20
2018-11-25T11:25:10.621Z,79.80
2018-11-25T11:27:38.265Z,79.90
2018-11-25T11:30:08.128Z,79.50
2018-11-25T11:32:35.836Z,78.40
2018-11-25T11:35:04.243Z,79.20
2018-11-25T11:37:31.819Z,79.60
2018-11-25T11:39:59.604Z,78.50
2018-11-25T11:42:28.678Z,77.80
2018-11-25T11:44:54.693Z,76.80
2018-11-25T11:47:22.285Z,77.00
2018-11-25T11:49:49.857Z,77.10
2018-11-25T11:52:17.579Z,77.20
2018-11-25T11:54:45.139Z,76.70
2018-11-25T11:57:12.653Z,77.30
2018-11-25T11:59:40.315Z,75.50
2018-11-25T12:02:07.879Z,76.10
2018-11-25T12:04:35.445Z,75.60
2018-11-25T12:07:03.179Z,75.80
2018-11-25T12:09:30.679Z,75.80
2018-11-25T12:11:58.216Z,76.20
2018-11-25T12:14:25.731Z,75.10
2018-11-25T12:16:53.251Z,76.50
2018-11-25T12:19:20.703Z,76.10
2018-11-25T12:21:48.310Z,76.40
2018-11-25T12:24:15.842Z,76.10
2018-11-25T12:26:43.417Z,75.60
2018-11-25T12:29:11.006Z,75.60
2018-11-25T12:31:38.614Z,76.10
2018-11-25T12:34:06.164Z,76.40
2018-11-25T12:36:33.693Z,77.50
2018-11-25T12:39:01.181Z,76.60
2018-11-25T12:41:28.728Z,76.50
2018-11-25T12:43:56.333Z,76.90
2018-11-25T12:46:23.797Z,77.10
2018-11-25T12:48:51.333Z,76.10
2018-11-25T12:51:18.900Z,76.10
2018-11-25T12:53:46.377Z,76.20
2018-11-25T12:56:13.950Z,76.60
2018-11-25T12:58:41.523Z,76.40
2018-11-25T13:03:43.953Z,76.50
2018-11-25T13:06:11.585Z,76.40
2018-11-25T13:08:39.089Z,76.60
2018-11-25T13:11:06.666Z,75.70
2018-11-25T13:13:34.221Z,76.20
2018-11-25T13:16:01.806Z,76.30
2018-11-25T13:18:29.338Z,75.70
2018-11-25T13:20:56.889Z,75.30
2018-11-25T13:23:24.441Z,75.30
2018-11-25T13:25:52.106Z,74.80
2018-11-25T13:28:19.655Z,74.30
2018-11-25T13:30:47.328Z,74.20
2018-11-25T13:33:15.061Z,73.90
2018-11-25T13:35:42.657Z,74.20
2018-11-25T13:38:10.248Z,73.70
2018-11-25T13:40:37.819Z,73.90
2018-11-25T13:43:06.024Z,74.00
2018-11-25T13:45:33.631Z,74.20
2018-11-25T13:48:01.159Z,74.10
2018-11-25T13:50:28.782Z,74.60
2018-11-25T13:52:56.361Z,74.80
2018-11-25T13:55:26.056Z,74.80
2018-11-25T13:57:53.609Z,74.60
2018-11-25T14:00:23.334Z,74.20
2018-11-25T14:02:50.986Z,75.30
2018-11-25T14:05:18.558Z,74.50
2018-11-25T14:07:46.215Z,74.60
2018-11-25T14:10:20.088Z,75.50
2018-11-25T14:12:47.748Z,74.70
2018-11-25T14:15:15.352Z,74.70
2018-11-25T14:17:42.945Z,75.00
2018-11-25T14:20:10.494Z,75.00
2018-11-25T14:22:38.138Z,74.80
2018-11-25T14:25:09.623Z,74.90
2018-11-25T14:27:37.203Z,75.00
2018-11-25T14:30:13.481Z,75.20
2018-11-25T14:32:39.921Z,75.30
2018-11-25T14:35:10.299Z,75.30
2018-11-25T14:37:37.895Z,75.40
2018-11-25T14:40:08.845Z,75.40
2018-11-25T14:42:36.471Z,75.50
2018-11-25T14:45:04.799Z,75.50
2018-11-25T14:47:32.422Z,75.50
2018-11-25T14:49:59.957Z,75.60
2018-11-25T14:52:27.525Z,75.70
2018-11-25T14:54:55.465Z,75.80
2018-11-25T14:57:23.197Z,75.70
2018-11-25T14:59:50.810Z,75.60
2018-11-25T15:02:18.350Z,75.30
2018-11-25T15:04:45.924Z,75.40
2018-11-25T15:07:13.489Z,75.40
2018-11-25T15:09:41.013Z,75.40
2018-11-25T15:12:08.518Z,75.50
2018-11-25T15:14:36.093Z,75.60
2018-11-25T15:17:03.707Z,75.40
2018-11-25T15:19:31.660Z,75.30
2018-11-25T15:21:59.211Z,75.10
2018-11-25T15:24:26.709Z,75.10
2018-11-25T15:26:54.236Z,74.90
2018-11-25T15:29:21.778Z,74.70
2018-11-25T15:31:49.380Z,74.70
2018-11-25T15:34:16.999Z,74.80
2018-11-25T15:36:44.610Z,74.80
2018-11-25T15:39:12.203Z,74.30
2018-11-25T15:41:39.971Z,74.50
2018-11-25T15:44:07.725Z,74.30
2018-11-25T15:46:35.303Z,74.70
2018-11-25T15:49:02.841Z,75.10
2018-11-25T15:51:30.441Z,75.50
2018-11-25T15:53:58.054Z,75.20
2018-11-25T15:56:25.810Z,75.00
2018-11-25T15:58:53.506Z,74.70
2018-11-25T16:01:21.176Z,74.90
2018-11-25T16:03:52.624Z,74.90
2018-11-25T16:06:31.695Z,74.60
2018-11-25T16:08:59.301Z,74.60
2018-11-25T16:11:27.290Z,74.00
2018-11-25T16:13:54.953Z,74.40
2018-11-25T16:16:22.798Z,74.80
2018-11-25T16:18:50.460Z,74.80
2018-11-25T16:21:18.166Z,74.30
2018-11-25T16:23:45.875Z,74.40
2018-11-25T16:26:32.018Z,74.30
2018-11-25T16:29:02.857Z,75.00
2018-11-25T16:31:30.613Z,74.40
2018-11-25T16:33:58.130Z,74.60
2018-11-25T16:36:27.204Z,74.60
2018-11-25T16:38:59.686Z,74.90
2018-11-25T16:41:28.526Z,74.80
2018-11-25T16:43:56.246Z,73.90
2018-11-25T16:46:23.870Z,74.30
2018-11-25T16:48:51.491Z,75.00
2018-11-25T16:51:20.048Z,76.30
2018-11-25T16:53:47.622Z,75.80
2018-11-25T16:56:16.480Z,76.20
2018-11-25T16:58:44.061Z,76.00
2018-11-25T17:01:11.675Z,75.70
2018-11-25T17:03:39.279Z,75.50
2018-11-25T17:06:08.807Z,74.90
2018-11-25T17:08:38.398Z,74.40
2018-11-25T17:11:06.976Z,74.10
2018-11-25T17:13:35.684Z,74.60
2018-11-25T17:16:03.294Z,74.80
2018-11-25T17:18:30.886Z,74.80
2018-11-25T17:20:58.466Z,74.50
2018-11-25T17:23:25.916Z,74.80
2018-11-25T17:25:53.441Z,75.30
2018-11-25T17:28:20.941Z,75.70
2018-11-25T17:30:48.489Z,76.10
2018-11-25T17:33:16.074Z,75.70
2018-11-25T17:35:43.557Z,75.70
2018-11-25T17:38:11.180Z,75.50
2018-11-25T17:40:38.985Z,75.40
2018-11-25T17:43:08.700Z,75.50
2018-11-25T17:45:36.369Z,75.50
2018-11-25T17:48:03.999Z,75.80
2018-11-25T17:50:31.533Z,76.00
2018-11-25T17:53:00.801Z,76.40
2018-11-25T17:55:29.173Z,76.80
2018-11-25T17:57:56.841Z,76.90
2018-11-25T18:00:37.729Z,76.70
2018-11-25T18:03:36.921Z,77.10
2018-11-25T18:06:04.709Z,76.50
2018-11-25T18:08:32.363Z,76.10
2018-11-25T18:10:59.991Z,76.40
2018-11-25T18:13:29.220Z,76.70
2018-11-25T18:15:58.264Z,76.40
2018-11-25T18:18:30.379Z,76.30
2018-11-25T18:21:00.929Z,76.70
2018-11-25T18:23:28.488Z,77.20
2018-11-25T18:25:58.061Z,77.00
2018-11-25T18:28:25.657Z,76.90
2018-11-25T18:30:53.216Z,76.90
2018-11-25T18:33:23.551Z,77.10
2018-11-25T18:35:53.566Z,77.30
2018-11-25T18:38:22.665Z,77.60
2018-11-25T18:40:50.547Z,78.00
2018-11-25T18:43:18.169Z,77.70
2018-11-25T18:45:45.857Z,77.10
2018-11-25T18:48:14.731Z,76.80
2018-11-25T18:50:42.544Z,76.80
2018-11-25T18:53:10.797Z,76.50
2018-11-25T18:55:37.287Z,76.80
2018-11-25T18:58:05.221Z,77.10
2018-11-25T19:01:44.702Z,77.40
2018-11-25T19:04:12.262Z,77.60
2018-11-25T19:06:39.864Z,77.10
2018-11-25T19:09:08.919Z,77.10
2018-11-25T19:11:36.846Z,76.80
2018-11-25T19:14:04.462Z,77.10
2018-11-25T19:16:32.091Z,76.90
2018-11-25T19:18:59.712Z,77.00
2018-11-25T19:21:27.308Z,76.50
2018-11-25T19:23:54.941Z,76.90
2018-11-25T19:26:22.571Z,77.50
2018-11-25T19:28:50.157Z,78.10
2018-11-25T19:31:17.678Z,78.20
2018-11-25T19:33:45.428Z,79.10
2018-11-25T19:36:13.037Z,78.30
2018-11-25T19:38:40.552Z,78.60
2018-11-25T19:41:08.426Z,78.40
2018-11-25T19:43:36.062Z,78.70
2018-11-25T19:46:03.653Z,80.20
2018-11-25T19:48:31.206Z,80.80
2018-11-25T19:50:58.871Z,80.60
2018-11-25T19:53:26.404Z,79.90
2018-11-25T19:55:53.881Z,78.70
2018-11-25T19:58:21.493Z,78.40
2018-11-25T20:00:48.978Z,77.90
2018-11-25T20:03:16.455Z,78.10
2018-11-25T20:05:44.040Z,78.30
2018-11-25T20:08:11.694Z,78.20
2018-11-25T20:10:39.151Z,78.10
2018-11-25T20:13:08.054Z,78.30
2018-11-25T20:15:35.941Z,78.80
2018-11-25T20:18:03.892Z,78.50
2018-11-25T20:20:31.520Z,78.20
2018-11-25T20:22:59.114Z,77.50
2018-11-25T20:25:26.786Z,77.80
2018-11-25T20:27:55.437Z,78.10
2018-11-25T20:30:24.106Z,77.70
2018-11-25T20:32:57.343Z,78.80
2018-11-25T20:35:24.906Z,78.90
2018-11-25T20:37:58.260Z,79.20
2018-11-25T20:40:25.827Z,79.50
2018-11-25T20:42:53.369Z,80.30
2018-11-25T20:45:27.299Z,79.60
2018-11-25T20:47:56.186Z,79.90
2018-11-25T20:50:23.794Z,79.80
2018-11-25T20:52:57.011Z,79.60
2018-11-25T20:55:24.609Z,79.70
2018-11-25T20:57:52.176Z,79.70
2018-11-25T21:00:20.986Z,79.50
2018-11-25T21:02:48.636Z,79.10
2018-11-25T21:05:16.460Z,78.70
2018-11-25T21:07:44.084Z,78.60
2018-11-25T21:10:13.705Z,78.60
2018-11-25T21:12:42.080Z,78.70
2018-11-25T21:15:10.359Z,78.60
2018-11-25T21:17:38.039Z,78.50
2018-11-25T21:20:09.811Z,78.60
2018-11-25T21:22:37.393Z,78.20
2018-11-25T21:25:13.771Z,78.50
2018-11-25T21:27:41.399Z,78.50
2018-11-25T21:30:11.990Z,78.20
2018-11-25T21:32:39.741Z,78.50
2018-11-25T21:35:08.667Z,79.20
2018-11-25T21:37:36.239Z,78.50
2018-11-25T21:40:07.709Z,78.60
2018-11-25T21:42:35.315Z,78.50
2018-11-25T21:45:02.927Z,78.30
2018-11-25T21:47:30.514Z,78.60
2018-11-25T21:49:58.125Z,78.90
2018-11-25T21:52:25.718Z,79.00
2018-11-25T21:54:53.279Z,79.40
2018-11-25T21:57:20.798Z,79.20
2018-11-25T21:59:48.330Z,78.60
2018-11-25T22:02:15.936Z,78.70
2018-11-25T22:04:43.396Z,78.90
2018-11-25T22:07:11.018Z,79.10
2018-11-25T22:09:38.577Z,79.40
2018-11-25T22:12:06.125Z,79.00
2018-11-25T22:14:33.754Z,78.90
2018-11-25T22:17:01.307Z,78.70
2018-11-25T22:19:28.799Z,78.50
2018-11-25T22:21:56.453Z,78.50
2018-11-25T22:24:23.964Z,78.80
2018-11-25T22:26:51.564Z,78.80
2018-11-25T22:29:19.093Z,78.80
2018-11-25T22:31:46.661Z,79.00
2018-11-25T22:34:14.228Z,78.50
2018-11-25T22:36:41.755Z,78.10
2018-11-25T22:39:09.564Z,78.10
2018-11-25T22:41:37.151Z,77.70
2018-11-25T22:44:05.039Z,78.70
2018-11-25T22:46:32.628Z,78.60
2018-11-25T22:49:00.208Z,79.40
2018-11-25T22:51:27.824Z,78.70
2018-11-25T22:53:55.318Z,78.20
2018-11-25T22:56:22.883Z,78.30
2018-11-25T22:58:50.430Z,78.00
2018-11-25T23:01:17.969Z,78.50
2018-11-25T23:03:45.607Z,79.40
2018-11-25T23:06:24.678Z,79.80
2018-11-25T23:08:52.206Z,79.40
2018-11-25T23:11:19.771Z,79.50
2018-11-25T23:13:47.467Z,79.20
2018-11-25T23:16:15.038Z,79.20
2018-11-25T23:18:42.590Z,79.00
2018-11-25T23:21:10.135Z,79.00
2018-11-25T23:23:37.679Z,79.00
2018-11-25T23:26:05.214Z,79.10
2018-11-25T23:28:32.752Z,79.20
2018-11-25T23:31:00.247Z,79.10
2018-11-25T23:33:27.749Z,79.10
2018-11-25T23:35:55.397Z,79.30
2018-11-25T23:38:22.951Z,79.20
2018-11-25T23:40:50.562Z,79.20
2018-11-25T23:43:18.098Z,79.10
2018-11-25T23:45:45.624Z,79.10
2018-11-25T23:48:13.132Z,79.10
2018-11-25T23:50:40.667Z,78.80
2018-11-25T23:53:08.299Z,78.90
2018-11-25T23:55:35.895Z,78.60
2018-11-25T23:58:03.456Z,78.60
